createdAt,value
2022-11-10T00:00:01.819Z,75.6
2022-11-10T00:05:02.011Z,66.8
2022-11-10T00:10:01.829Z,72.0
2022-11-10T00:20:01.703Z,74.9
2022-11-10T00:25:01.946Z,76.1
2022-11-10T00:30:01.618Z,79.9
2022-11-10T00:35:01.710Z,82.9
2022-11-10T00:40:06.548Z,71.6
2022-11-10T00:45:01.749Z,72.8
2022-11-10T00:50:01.593Z,74.7
2022-11-10T00:55:01.654Z,81.7
2022-11-10T01:05:02.390Z,83.1
2022-11-10T01:10:01.742Z,87.7
2022-11-10T01:20:01.620Z,92.7
2022-11-10T01:35:01.631Z,89.0
2022-11-10T02:05:06.373Z,94.4
2022-11-10T02:15:01.786Z,87.1
2022-11-10T02:20:01.257Z,85.6
2022-11-10T02:25:01.741Z,84.4
2022-11-10T02:35:01.349Z,82.0
2022-11-10T02:40:01.404Z,81.4
2022-11-10T02:45:01.418Z,81.1
2022-11-10T02:50:01.248Z,80.9
2022-11-10T02:55:01.324Z,80.7
2022-11-10T03:00:01.262Z,82.0
2022-11-10T03:05:01.743Z,81.8
2022-11-10T03:10:01.585Z,82.4
2022-11-10T03:20:01.312Z,85.5
2022-11-10T03:25:01.658Z,85.7
2022-11-10T03:30:01.254Z,89.8
2022-11-10T03:35:01.345Z,93.5
2022-11-10T03:40:01.369Z,97.1
2022-11-10T03:50:06.516Z,108.5
2022-11-10T04:00:01.225Z,115.5
2022-11-10T04:05:01.716Z,115.0
2022-11-10T04:10:02.029Z,112.8
2022-11-10T04:35:02.781Z,120.0
2022-11-10T04:40:01.658Z,119.6
2022-11-10T04:50:01.925Z,115.7
2022-11-10T04:55:02.815Z,115.2
2022-11-10T05:05:01.713Z,113.4
2022-11-10T05:10:01.922Z,115.1
2022-11-10T05:45:01.575Z,129.0
2022-11-10T05:50:01.361Z,127.9
2022-11-10T05:55:01.830Z,128.9
2022-11-10T06:00:01.425Z,127.4
2022-11-10T06:05:01.775Z,128.7
2022-11-10T06:10:02.494Z,130.9
2022-11-10T06:25:02.496Z,133.0
2022-11-10T07:20:01.343Z,70.5
2022-11-10T07:40:02.533Z,74.6
2022-11-10T07:45:01.453Z,76.4
2022-11-10T07:50:01.389Z,75.8
2022-11-10T07:55:01.582Z,78.0
2022-11-10T08:05:01.623Z,85.7
2022-11-10T08:10:01.353Z,91.1
2022-11-10T08:20:01.500Z,100.5
2022-11-10T08:25:01.976Z,100.8
2022-11-10T08:35:01.673Z,95.2
2022-11-10T08:40:01.565Z,86.6
2022-11-10T08:45:01.626Z,78.0
2022-11-10T08:50:01.454Z,72.5
2022-11-10T08:55:01.659Z,74.6
2022-11-10T09:05:06.633Z,76.8
2022-11-10T09:15:01.564Z,78.0
2022-11-10T09:25:06.895Z,69.6
2022-11-10T09:35:01.593Z,76.5
2022-11-10T09:40:02.094Z,95.2
2022-11-10T09:50:02.684Z,90.8
2022-11-10T09:55:01.946Z,84.0
2022-11-10T10:00:01.395Z,78.8
2022-11-10T10:05:01.836Z,59.5
2022-11-10T10:10:01.442Z,56.0
2022-11-10T10:25:01.542Z,55.4
2022-11-10T10:30:01.134Z,57.2
2022-11-10T10:40:01.286Z,60.4
2022-11-10T11:25:02.070Z,57.6
2022-11-10T11:30:02.039Z,55.7
2022-11-10T11:35:01.977Z,70.6
2022-11-10T11:55:01.524Z,69.4
2022-11-10T12:00:01.396Z,71.5
2022-11-10T12:05:01.406Z,61.9
2022-11-10T12:10:01.538Z,55.9
2022-11-10T12:25:02.321Z,41.6
2022-11-10T12:50:01.429Z,56.2
2022-11-10T12:55:01.399Z,48.9
2022-11-10T13:00:01.083Z,46.0
2022-11-10T13:05:08.052Z,44.8
2022-11-10T13:25:01.875Z,39.6
2022-11-10T14:05:10.601Z,38.8
2022-11-10T14:25:01.800Z,42.8
2022-11-10T15:05:02.037Z,41.0
2022-11-10T15:10:01.605Z,39.7
2022-11-10T15:15:01.495Z,38.1
2022-11-10T15:20:01.471Z,38.3
2022-11-10T15:25:01.947Z,38.6
2022-11-10T15:30:01.380Z,39.2
2022-11-10T15:55:02.340Z,56.4
2022-11-10T16:00:02.227Z,46.1
2022-11-10T16:05:02.202Z,43.0
2022-11-10T16:10:02.029Z,42.5
2022-11-10T16:20:02.332Z,39.0
2022-11-10T16:25:07.331Z,42.3
2022-11-10T16:35:02.043Z,44.8
2022-11-10T16:40:02.034Z,47.6
2022-11-10T16:50:02.654Z,50.5
2022-11-10T16:55:01.965Z,55.6
2022-11-10T17:00:01.951Z,55.6
2022-11-10T17:05:02.633Z,54.5
2022-11-10T17:10:02.045Z,50.5
2022-11-10T17:20:01.896Z,45.9
2022-11-10T17:25:07.132Z,45.7
2022-11-10T17:35:02.491Z,48.5
2022-11-10T17:40:02.273Z,55.6
2022-11-10T17:45:01.767Z,59.8
2022-11-10T17:50:02.000Z,64.2
2022-11-10T17:55:01.864Z,66.9
2022-11-10T18:00:02.674Z,69.8
2022-11-10T18:05:02.130Z,62.8
2022-11-10T18:10:02.062Z,58.8
2022-11-10T18:20:01.784Z,48.8
2022-11-10T18:25:01.873Z,49.6
2022-11-10T18:35:02.912Z,50.5
2022-11-10T18:40:08.365Z,51.3
2022-11-10T18:50:02.024Z,47.4
2022-11-10T18:55:01.895Z,52.1
2022-11-10T19:00:02.077Z,55.4
2022-11-10T19:05:02.888Z,54.3
2022-11-10T19:10:02.292Z,53.8
2022-11-10T19:20:01.748Z,47.8
2022-11-10T19:25:11.610Z,42.4
2022-11-10T19:30:01.837Z,44.6
2022-11-10T19:35:01.781Z,47.4
2022-11-10T19:40:02.110Z,52.1
2022-11-10T19:45:01.869Z,55.0
2022-11-10T19:50:01.899Z,59.6
2022-11-10T19:55:01.771Z,63.2
2022-11-10T20:00:01.998Z,59.9
2022-11-10T20:05:02.452Z,56.2
2022-11-10T20:10:01.821Z,53.1
2022-11-10T20:15:02.005Z,49.0
2022-11-10T20:20:01.801Z,46.9
2022-11-10T20:35:03.065Z,48.6
2022-11-10T20:40:38.063Z,49.2
2022-11-10T20:50:01.744Z,52.5
2022-11-10T20:55:02.394Z,51.3
2022-11-10T21:05:02.042Z,58.1
2022-11-10T21:10:01.797Z,54.8
2022-11-10T21:20:01.838Z,52.8
2022-11-10T21:25:01.733Z,55.0
2022-11-10T21:35:01.762Z,60.2
2022-11-10T21:50:01.958Z,64.9
2022-11-10T21:55:01.725Z,60.6
2022-11-10T22:00:01.774Z,54.7
2022-11-10T22:05:01.716Z,48.6
2022-11-10T22:10:01.798Z,44.0
2022-11-10T22:15:01.661Z,46.7
2022-11-10T22:25:07.705Z,47.8
2022-11-10T22:30:01.697Z,50.8
2022-11-10T22:35:01.758Z,52.5
2022-11-10T22:40:01.911Z,53.1
2022-11-10T22:45:01.981Z,52.4
2022-11-10T22:50:01.678Z,50.0
2022-11-10T22:55:01.899Z,47.7
2022-11-10T23:00:02.231Z,47.8
2022-11-10T23:05:02.680Z,45.8
2022-11-10T23:10:01.656Z,46.1
2022-11-10T23:15:01.681Z,47.6
2022-11-10T23:20:02.736Z,48.3
2022-11-10T23:25:02.195Z,46.1
2022-11-10T23:30:01.668Z,46.4
2022-11-10T23:35:01.654Z,47.8
2022-11-10T23:40:02.080Z,48.4
2022-11-10T23:45:01.609Z,49.0
2022-11-10T23:50:06.837Z,50.4
2022-11-10T23:55:02.084Z,51.8
